Time,TemperatureC,DewpointC,PressurehPa,WindDirection,WindDirectionDegrees,WindSpeedKMH,WindSpeedGustKMH,Humidity,HourlyPrecipMM,Conditions,Clouds,dailyrainMM,SolarRadiationWatts/m^2,UVIndex,SoftwareType,DateUTC
2026-09-01 09:14:28,6.4,4.7,992.1,North,0,0,1.9,89,0.0,,,0.0,0,0,n/a,2026-08-31T21:14:28Z
2026-09-01 09:26:29,6.4,4.7,992.1,North,0,0,0,89,0.0,,,0.0,0,0,n/a,2026-08-31T21:26:29Z
2026-09-01 09:39:57,7.1,3.3,1010.5,West,264,3.8,9.3,77,0.0,,,0.0,425,1.1,n/a,2026-08-31T21:39:57Z
2026-09-01 09:44:57,7.4,3.3,1010.4,West,264,3.9,9.7,75.2,0.0,,,0.0,439,1.2,n/a,2026-08-31T21:44:57Z
2026-09-01 09:49:56,7.8,3.4,1010.5,West,269,3.7,6.4,73.8,0.0,,,0.0,452,1.3,n/a,2026-08-31T21:49:56Z
2026-09-01 09:54:56,8.1,3.3,1010.5,West,275,4.5,11.3,71.8,0.0,,,0.0,466,1.3,n/a,2026-08-31T21:54:56Z
2026-09-01 09:59:54,8.4,3.3,1010.6,West,271,2.9,6.4,70.2,0.0,,,0.0,487,1.4,n/a,2026-08-31T21:59:54Z
2026-09-01 10:04:59,8.7,3.3,1010.7,West,275,2.4,5.6,68.9,0.0,,,0.0,497,1.4,n/a,2026-08-31T22:04:59Z
2026-09-01 10:09:56,9,3.1,1010.6,WSW,248,2.3,6.4,66.4,0.0,,,0.0,496,1.5,n/a,2026-08-31T22:09:56Z
2026-09-01 10:14:54,9.3,2.9,1010.6,West,272,3.5,9.7,64.2,0.0,,,0.0,503,1.6,n/a,2026-08-31T22:14:54Z
2026-09-01 10:19:59,9.6,2.8,1010.6,WSW,239,1.7,5.6,62.9,0.0,,,0.0,513,1.6,n/a,2026-08-31T22:19:59Z
2026-09-01 10:24:58,9.8,2.8,1010.5,West,267,4.1,9.7,61.8,0.0,,,0.0,522,1.7,n/a,2026-08-31T22:24:58Z
2026-09-01 10:29:57,10,2.3,1010.6,NW,312,2.3,6.4,58.8,0.0,,,0.0,533,1.8,n/a,2026-08-31T22:29:57Z
2026-09-01 10:34:58,10.2,2.5,1010.5,NNW,329,2.4,6.4,58.5,0.0,,,0.0,541,1.9,n/a,2026-08-31T22:34:58Z
2026-09-01 10:39:59,10.5,2,1010.4,ESE,117,1.2,5.6,55.7,0.0,,,0.0,550,1.9,n/a,2026-08-31T22:39:59Z
2026-09-01 10:44:58,10.7,1.7,1010.3,SE,128,1.8,6.4,53.9,0.0,,,0.0,557,2,n/a,2026-08-31T22:44:58Z
2026-09-01 10:49:57,10.9,1.8,1010.3,SE,140,1.5,5.6,53.7,0.0,,,0.0,564,2,n/a,2026-08-31T22:49:57Z
2026-09-01 10:54:57,11.1,1.5,1010.4,West,268,1.5,5.6,51.7,0.0,,,0.0,573,2.1,n/a,2026-08-31T22:54:57Z
2026-09-01 10:59:54,11.2,1,1010.4,SSW,208,2.8,11.3,49.5,0.0,,,0.0,582,2.2,n/a,2026-08-31T22:59:54Z
2026-09-01 11:04:54,11.3,0.4,1010.3,West,270,5.8,11.3,47.3,0.0,,,0.0,587,2.2,n/a,2026-08-31T23:04:54Z
2026-09-01 11:09:58,11.3,0.1,1010.2,West,271,2.3,11.1,46.2,0.0,,,0.0,591,2.2,n/a,2026-08-31T23:09:58Z
2026-09-01 11:14:58,11.4,0.1,1010.2,West,273,4.3,9.7,45.7,0.0,,,0.0,596,2.3,n/a,2026-08-31T23:14:58Z
2026-09-01 11:19:56,11.4,-0.7,1010.0,West,275,3,12.9,43.3,0.0,,,0.0,603,2.3,n/a,2026-08-31T23:19:56Z
2026-09-01 11:24:55,11.4,-0.5,1009.9,West,276,3,13,43.6,0.0,,,0.0,606,2.4,n/a,2026-08-31T23:24:55Z
2026-09-01 11:29:59,11.6,-0.4,1009.8,WNW,286,2.6,6.4,43.7,0.0,,,0.0,612,2.4,n/a,2026-08-31T23:29:59Z
2026-09-01 11:34:57,11.8,0.4,1009.7,WNW,287,2.9,8,45.8,0.0,,,0.0,615,2.5,n/a,2026-08-31T23:34:57Z
2026-09-01 11:39:57,11.9,0.8,1009.6,WNW,295,0.9,6.4,46.5,0.0,,,0.0,621,2.5,n/a,2026-08-31T23:39:57Z
2026-09-01 11:44:56,12,0.3,1009.5,West,274,2.7,6.4,44.6,0.0,,,0.0,624,2.5,n/a,2026-08-31T23:44:56Z
2026-09-01 11:49:59,12.1,0.6,1009.5,West,268,2.2,6.4,45.1,0.0,,,0.0,626,2.5,n/a,2026-08-31T23:49:59Z
2026-09-01 11:54:57,12.3,0.6,1009.4,West,273,2.4,9.7,44.9,0.0,,,0.0,629,2.6,n/a,2026-08-31T23:54:57Z
2026-09-01 11:59:54,12.4,1.2,1009.3,West,276,2.8,9.7,46.4,0.0,,,0.0,629,2.6,n/a,2026-08-31T23:59:54Z
2026-09-01 12:04:59,12.5,1.7,1009.3,West,280,2.8,9.7,47.9,0.0,,,0.0,631,2.6,n/a,2026-09-01T00:04:59Z
2026-09-01 12:09:56,12.7,2,1009.2,West,270,4.4,11.3,48.3,0.0,,,0.0,635,2.6,n/a,2026-09-01T00:09:56Z
2026-09-01 12:14:54,12.8,2.2,1009.1,West,270,3.5,13,48.4,0.0,,,0.0,635,2.7,n/a,2026-09-01T00:14:54Z
2026-09-01 12:19:59,12.8,1.8,1009.1,West,279,4.8,14.8,47.2,0.0,,,0.0,635,2.7,n/a,2026-09-01T00:19:59Z
2026-09-01 12:24:58,12.7,2.3,1009.1,WNW,285,3.7,11.3,49.1,0.0,,,0.0,635,2.7,n/a,2026-09-01T00:24:58Z
2026-09-01 12:29:56,12.7,2.2,1009.0,WNW,291,4.3,14.8,49.1,0.0,,,0.0,635,2.7,n/a,2026-09-01T00:29:56Z
2026-09-01 12:34:55,12.7,2.1,1009.0,WNW,285,3.8,13,48.4,0.0,,,0.0,636,2.7,n/a,2026-09-01T00:34:55Z
2026-09-01 12:39:56,12.7,2.2,1008.9,WNW,299,5.8,13,48.6,0.0,,,0.0,635,2.7,n/a,2026-09-01T00:39:56Z
2026-09-01 12:44:59,12.6,1.8,1008.9,West,277,2.6,7.4,47.9,0.0,,,0.0,635,2.7,n/a,2026-09-01T00:44:59Z
2026-09-01 12:49:57,12.9,2.3,1008.9,West,268,2.6,6.4,48.7,0.0,,,0.0,633,2.6,n/a,2026-09-01T00:49:57Z
2026-09-01 12:54:56,13.2,2.2,1008.9,West,274,3.1,11.3,47.3,0.0,,,0.0,631,2.6,n/a,2026-09-01T00:54:56Z
2026-09-01 12:59:55,13.4,3,1008.8,WNW,293,3.6,8,49.4,0.0,,,0.0,629,2.6,n/a,2026-09-01T00:59:55Z
2026-09-01 13:04:59,13.4,2.7,1008.7,NW,307,5.3,11.3,48.3,0.0,,,0.0,628,2.6,n/a,2026-09-01T01:04:59Z
2026-09-01 13:09:57,13.3,2.6,1008.6,WNW,299,7.2,14.8,48.4,0.0,,,0.0,624,2.6,n/a,2026-09-01T01:09:57Z
2026-09-01 13:14:56,13.1,2.8,1008.5,NW,318,6.6,14.8,49.8,0.0,,,0.0,621,2.6,n/a,2026-09-01T01:14:56Z
2026-09-01 13:19:54,12.8,3.5,1008.6,NNE,19,4.7,11.1,53.2,0.0,,,0.0,617,2.5,n/a,2026-09-01T01:19:54Z
2026-09-01 13:24:57,12.6,3.7,1008.5,NNE,16,6,13,54.5,0.0,,,0.0,613,2.5,n/a,2026-09-01T01:24:57Z
2026-09-01 13:29:55,12.4,3.4,1008.4,NNE,15,5.2,11.3,54.3,0.0,,,0.0,608,2.5,n/a,2026-09-01T01:29:55Z
2026-09-01 13:34:59,12.5,3.8,1008.3,North,352,4.7,14.8,55.3,0.0,,,0.0,603,2.4,n/a,2026-09-01T01:34:59Z
2026-09-01 13:39:59,12.6,3.5,1008.2,North,350,5.3,11.1,53.8,0.0,,,0.0,599,2.4,n/a,2026-09-01T01:39:59Z
2026-09-01 13:44:55,12.6,3.2,1008.2,NNE,19,4.7,9.7,52.8,0.0,,,0.0,594,2.3,n/a,2026-09-01T01:44:55Z
2026-09-01 13:49:57,12.6,3.5,1008.2,NNW,334,4.9,13,54,0.0,,,0.0,591,2.3,n/a,2026-09-01T01:49:57Z
2026-09-01 13:54:57,12.8,3.5,1008.1,North,5,4,8,53.2,0.0,,,0.0,585,2.2,n/a,2026-09-01T01:54:57Z
2026-09-01 13:59:57,13,3.3,1007.9,NNE,24,3.8,8,51.7,0.0,,,0.0,578,2.2,n/a,2026-09-01T01:59:57Z
2026-09-01 14:04:59,13,3.2,1007.8,NNW,333,5.4,11.3,51.1,0.0,,,0.0,570,2.1,n/a,2026-09-01T02:04:59Z
2026-09-01 14:09:57,13.2,3.5,1007.7,North,355,5.6,12.9,52,0.0,,,0.0,564,2.1,n/a,2026-09-01T02:09:57Z
2026-09-01 14:14:55,13.1,3,1007.7,NNW,345,5.7,13,50.5,0.0,,,0.0,555,2,n/a,2026-09-01T02:14:55Z
2026-09-01 14:19:54,13,3.1,1007.6,North,8,4.3,11.3,51,0.0,,,0.0,550,2,n/a,2026-09-01T02:19:54Z
2026-09-01 14:24:57,12.9,2.4,1007.5,North,7,5.9,11.3,49,0.0,,,0.0,540,1.9,n/a,2026-09-01T02:24:57Z
2026-09-01 14:29:55,12.8,2.3,1007.5,NNE,33,4,9.3,49.1,0.0,,,0.0,533,1.8,n/a,2026-09-01T02:29:55Z
2026-09-01 14:34:58,12.8,2.9,1007.5,NE,42,3,8,50.9,0.0,,,0.0,522,1.8,n/a,2026-09-01T02:34:58Z
2026-09-01 14:39:53,12.8,2.9,1007.5,NE,56,5.4,11.3,51.2,0.0,,,0.0,515,1.7,n/a,2026-09-01T02:39:53Z
2026-09-01 14:44:54,12.6,2.3,1007.5,North,357,6.6,14.8,49.4,0.0,,,0.0,504,1.7,n/a,2026-09-01T02:44:54Z
2026-09-01 14:49:54,12.8,3.1,1007.4,NNE,17,1.8,6.4,51.7,0.0,,,0.0,496,1.6,n/a,2026-09-01T02:49:54Z
2026-09-01 14:54:59,13,3.1,1007.4,NNW,334,7.8,20.9,51,0.0,,,0.0,485,1.5,n/a,2026-09-01T02:54:59Z
2026-09-01 14:59:53,13.1,3.3,1007.2,NNW,341,6.7,14.8,51.5,0.0,,,0.0,482,1.5,n/a,2026-09-01T02:59:53Z